Aérodrome :
LOGIN :

S'inscrire | Disclaimer

   EN    FR    IT 

 










Légende :    VFR   VFR Marginal   IFR   IFR Intensif   IFR Très Intensif
Visi : 
Plafond : 
>= 8 km
>= 3000ft
5 à 8 km
1000 à 3000 ft
1500m à 5 km
500 à 1000 ft
800 à 1500m
200 à 500 ft
< 800m
< 200 ft
Symboles :   Orages  Brouillard  Fortes neiges  Fortes précipitations  Vent > 20 kt
SIGMETs :   Divers  Orages  Givrage  Turbulence  Onde Orograph.  Cendres Volcan.






- Altitude de l'aérodrome : 499 ft
- Code IATA : TLS


LFBO - Toulouse / Blagnac

DERNIER METAR :
  • 210200Z AUTO 28005KT 240V300 9999 BKN013 10/09 Q1016 TEMPO 4000 BR BECMG NSC

METARs EXPIRÉS :
  • 210130Z AUTO 00000KT 9999 SCT015 BKN023 10/09 Q1016 TEMPO 4000 BR
  • 210100Z AUTO 14003KT 9999 FEW022 10/09 Q1016 TEMPO 4000 BR
  • 210030Z AUTO 23003KT CAVOK 10/08 Q1016 TEMPO 4000 BR
  • 210000Z AUTO 25005KT CAVOK 10/09 Q1015 TEMPO 4000 BR
  • 202330Z AUTO VRB03KT CAVOK 11/10 Q1015 TEMPO 4000 BR

TAF TAF LFBO
Valide du 21 à 00h jusqu'au 22 à 06h UTC


202300Z 2100/2206 24007KT CAVOK
BECMG 2100/2102 VRB02KT
PROB30
TEMPO 2101/2106 4000 BR
PROB30
TEMPO 2106/2108 BKN012
BECMG 2108/2110 SCT017
BECMG 2112/2114 02005KT
BECMG 2114/2116 CAVOK
BECMG 2117/2119 VRB02KT
BECMG 2123/2201 BKN020
BECMG 2205/2206 BKN012
ATIS : +33 5 62 74 66 36



MET'MAP, la Météo Aéronautique d'un coup d'oeil ! - Copyright ORBIFLY Décembre 2007 - Disclaimer

ORBIFLY MET'MAP TEAM :

Programmation & Développement : Alexandra Zaïnal
Conception & Développement : Baudouin d'Aumeries
Co-Programmation & Développement : Marc-Olivier Méhu
Soutien technique & logistique : Manuel Goepfert

Contact : metmap@orbifly.com




SOURCES & CREDITS :

   NOAA